createdAt,value
2024-01-20T13:38:00.457Z,17.1
2024-01-20T13:43:38.787Z,17.2
2024-01-20T13:49:21.711Z,17.4
2024-01-20T13:55:15.566Z,17.1
2024-01-20T14:00:54.502Z,17.1
2024-01-20T14:06:34.351Z,17.4
2024-01-20T14:12:13.438Z,16.9
2024-01-20T14:17:52.214Z,17.4
2024-01-20T14:23:34.494Z,17.4
2024-01-20T14:29:17.133Z,17.1
2024-01-20T14:34:57.300Z,17.4
2024-01-20T14:45:59.123Z,15.5
2024-01-20T14:51:39.682Z,14.6
2024-01-20T14:57:18.521Z,25.1
2024-01-20T15:03:00.319Z,30.4
2024-01-20T15:08:42.718Z,33.6
2024-01-20T15:14:22.914Z,35.7
2024-01-20T15:20:03.207Z,36.6
2024-01-20T15:25:44.011Z,36.8
2024-01-20T15:31:23.360Z,35.8
2024-01-20T15:37:06.455Z,38.9
2024-01-20T15:42:46.863Z,35.8
2024-01-20T15:48:25.379Z,36.9
2024-01-20T15:54:05.481Z,37.3
2024-01-20T15:59:28.922Z,34.9
2024-01-20T16:05:08.504Z,37.9
2024-01-20T16:10:50.092Z,34.6
2024-01-20T16:16:31.242Z,38.7
2024-01-20T16:22:12.081Z,36.4
2024-01-20T16:27:37.481Z,38.6
2024-01-20T16:32:46.469Z,38.7
2024-01-20T16:38:26.405Z,39.5
2024-01-20T16:44:07.716Z,39.1
2024-01-20T16:49:47.293Z,39.8
2024-01-20T16:55:31.867Z,40.4
2024-01-20T17:00:42.972Z,39.9
2024-01-20T17:05:52.420Z,41.9
2024-01-20T17:11:15.862Z,38.6
2024-01-20T17:16:39.283Z,42.6
2024-01-20T17:22:03.644Z,41.5
2024-01-20T17:27:42.636Z,41.1
2024-01-20T17:32:52.562Z,40.8
2024-01-20T17:38:34.193Z,40
2024-01-20T17:43:57.905Z,44.3
2024-01-20T17:49:37.938Z,41.6
2024-01-20T17:54:45.674Z,39.6
2024-01-20T18:00:10.761Z,42
2024-01-20T18:05:22.071Z,37.9
2024-01-20T18:10:45.984Z,43.1
2024-01-20T18:16:24.377Z,41.4
2024-01-20T18:22:04.423Z,41.4
2024-01-20T18:27:43.115Z,40.2
2024-01-20T18:33:24.427Z,42.9
2024-01-20T18:39:04.046Z,45.8
2024-01-20T18:44:44.609Z,46.3
2024-01-20T18:50:09.262Z,45.1
2024-01-20T18:55:32.565Z,42.7
2024-01-20T19:01:11.461Z,40.1
2024-01-20T19:06:50.817Z,43.5
2024-01-20T19:12:00.304Z,42.9
2024-01-20T19:17:40.790Z,41.6
2024-01-20T19:23:23.161Z,39.6
2024-01-20T19:29:18.255Z,42.2
2024-01-20T19:34:43.996Z,37.3
2024-01-20T19:40:23.390Z,38.4
2024-01-20T19:46:04.872Z,42.4
2024-01-20T19:51:44.984Z,42.6
2024-01-20T19:57:24.991Z,46.9
2024-01-20T20:03:05.810Z,48.9
2024-01-20T20:08:45.582Z,48.4
2024-01-20T20:14:09.326Z,47.3
2024-01-20T20:19:33.268Z,45.5
2024-01-20T20:25:12.938Z,42.1
2024-01-20T20:30:54.635Z,40.4
2024-01-20T20:36:56.128Z,42.1
2024-01-20T20:42:35.201Z,41.5
2024-01-20T20:48:14.676Z,37.3
2024-01-20T20:53:55.144Z,38.8
2024-01-20T20:59:35.946Z,39.2
2024-01-20T21:05:16.165Z,37.3
2024-01-20T21:10:24.453Z,34.3
2024-01-20T21:16:03.329Z,31.8
2024-01-20T21:21:28.357Z,29.9
2024-01-20T21:27:07.833Z,28.1
2024-01-20T21:32:47.679Z,24.9
2024-01-20T21:38:28.743Z,23.6
2024-01-20T21:44:07.214Z,22.8
2024-01-20T21:49:46.815Z,22.1
2024-01-20T21:55:26.094Z,21.4
2024-01-20T22:01:05.802Z,20.7
2024-01-20T22:06:45.253Z,20.1
2024-01-20T22:12:07.744Z,19.6
2024-01-20T22:17:46.647Z,19.1
2024-01-20T22:23:25.704Z,18.8
2024-01-20T22:29:10.722Z,18.9
2024-01-20T22:34:55.599Z,19
2024-01-20T22:45:58.512Z,18.3
2024-01-20T22:51:39.480Z,18
2024-01-20T22:57:18.390Z,17.7
2024-01-20T23:02:58.093Z,17.9
2024-01-20T23:08:37.671Z,18.5
2024-01-20T23:14:18.986Z,18.4
2024-01-20T23:19:58.320Z,18
2024-01-20T23:25:38.036Z,17.6
2024-01-20T23:31:16.770Z,17.4
2024-01-20T23:36:56.628Z,17.2
2024-01-20T23:42:36.177Z,17.9
2024-01-20T23:48:15.241Z,18.4
2024-01-20T23:53:39.248Z,18.2
2024-01-20T23:59:02.556Z,17.8
